createdAt,value
2023-05-02T00:00:45.959Z,6.67
2023-05-02T00:03:49.452Z,6.10
2023-05-02T00:06:54.705Z,5.87
2023-05-02T00:09:58.147Z,5.97
2023-05-02T00:13:01.368Z,6.27
2023-05-02T00:16:04.758Z,6.40
2023-05-02T00:19:07.975Z,6.57
2023-05-02T00:22:12.427Z,6.43
2023-05-02T00:25:17.067Z,6.77
2023-05-02T00:28:20.062Z,6.40
2023-05-02T00:31:23.126Z,6.23
2023-05-02T00:34:32.560Z,6.63
2023-05-02T00:37:37.332Z,6.53
2023-05-02T00:40:47.626Z,6.23
2023-05-02T00:43:50.836Z,6.30
2023-05-02T00:46:54.435Z,6.20
2023-05-02T00:49:57.874Z,6.40
2023-05-02T00:53:04.347Z,6.03
2023-05-02T00:56:08.743Z,6.30
2023-05-02T00:59:12.693Z,5.93
2023-05-02T01:02:31.872Z,6.13
2023-05-02T01:05:44.538Z,6.67
2023-05-02T01:08:55.457Z,6.27
2023-05-02T01:12:05.579Z,6.97
2023-05-02T01:15:13.250Z,6.20
2023-05-02T01:18:19.556Z,6.40
2023-05-02T01:21:23.808Z,6.90
2023-05-02T01:24:33.589Z,6.97
2023-05-02T01:27:47.500Z,7.10
2023-05-02T01:30:54.755Z,6.03
2023-05-02T01:33:59.890Z,7.03
2023-05-02T01:37:04.609Z,6.77
2023-05-02T01:40:10.400Z,6.47
2023-05-02T01:43:15.044Z,6.90
2023-05-02T01:46:21.425Z,6.80
2023-05-02T01:49:26.875Z,6.73
2023-05-02T01:52:31.146Z,6.30
2023-05-02T01:55:37.435Z,6.87
2023-05-02T01:58:41.329Z,6.40
2023-05-02T02:01:46.992Z,6.83
2023-05-02T02:04:51.120Z,7.00
2023-05-02T02:07:54.321Z,6.40
2023-05-02T02:11:01.626Z,6.17
2023-05-02T02:14:08.606Z,6.40
2023-05-02T02:17:17.912Z,6.87
2023-05-02T02:20:23.009Z,6.23
2023-05-02T02:23:29.252Z,7.03
2023-05-02T02:26:32.333Z,6.30
2023-05-02T02:29:35.891Z,6.47
2023-05-02T02:32:40.260Z,6.47
2023-05-02T02:35:45.967Z,6.80
2023-05-02T02:38:58.033Z,6.70
2023-05-02T02:42:11.761Z,6.83
2023-05-02T02:45:25.730Z,6.17
2023-05-02T02:48:36.768Z,6.40
2023-05-02T02:51:53.028Z,6.30
2023-05-02T02:55:01.886Z,6.33
2023-05-02T02:58:20.067Z,6.20
2023-05-02T03:01:25.464Z,6.20
2023-05-02T03:04:32.056Z,5.57
2023-05-02T03:07:35.103Z,6.10
2023-05-02T03:10:38.674Z,6.03
2023-05-02T03:13:41.609Z,6.10
2023-05-02T03:16:44.782Z,6.00
2023-05-02T03:19:49.539Z,7.33
2023-05-02T03:22:53.064Z,8.13
2023-05-02T03:25:56.160Z,8.10
2023-05-02T03:28:59.194Z,7.00
2023-05-02T03:32:02.310Z,6.20
2023-05-02T03:35:09.817Z,5.90
2023-05-02T03:38:12.905Z,6.10
2023-05-02T03:41:16.091Z,5.90
2023-05-02T03:44:19.082Z,5.30
2023-05-02T03:47:23.521Z,5.60
2023-05-02T03:50:28.478Z,5.20
2023-05-02T03:53:32.614Z,5.60
2023-05-02T03:56:35.792Z,6.10
2023-05-02T03:59:41.666Z,6.00
2023-05-02T04:02:44.810Z,6.10
2023-05-02T04:05:49.510Z,6.33
2023-05-02T04:08:52.523Z,6.57
2023-05-02T04:11:56.937Z,6.47
2023-05-02T04:15:00.655Z,6.70
2023-05-02T04:18:03.799Z,6.37
2023-05-02T04:21:10.439Z,6.17
2023-05-02T04:24:14.692Z,6.30
2023-05-02T04:27:17.765Z,6.13
2023-05-02T04:30:21.255Z,5.27
2023-05-02T04:33:24.776Z,5.50
2023-05-02T04:36:29.439Z,6.03
2023-05-02T04:39:32.601Z,5.80
2023-05-02T04:42:35.778Z,5.90
2023-05-02T04:45:38.845Z,6.07
2023-05-02T04:48:42.332Z,5.67
2023-05-02T04:51:47.087Z,5.57
2023-05-02T04:54:50.353Z,5.83
2023-05-02T04:57:53.308Z,5.80
2023-05-02T05:01:36.182Z,5.40
2023-05-02T05:04:37.540Z,5.27
2023-05-02T05:07:43.047Z,5.70
2023-05-02T05:10:46.147Z,5.47
2023-05-02T05:13:49.210Z,6.30
2023-05-02T05:16:52.177Z,6.30
2023-05-02T05:19:55.237Z,6.10
2023-05-02T05:22:59.582Z,6.47
2023-05-02T05:26:10.845Z,6.57
2023-05-02T05:29:13.840Z,6.47
2023-05-02T05:32:16.878Z,5.93
2023-05-02T05:35:19.913Z,6.50
2023-05-02T05:38:24.338Z,6.13
2023-05-02T05:41:27.642Z,6.20
2023-05-02T05:44:32.474Z,7.07
2023-05-02T05:47:35.728Z,6.20
2023-05-02T05:50:38.760Z,5.90
2023-05-02T05:53:43.396Z,6.40
2023-05-02T05:56:47.010Z,6.57
2023-05-02T05:59:50.046Z,6.43
2023-05-02T06:02:53.344Z,6.23
2023-05-02T06:05:56.428Z,6.60
2023-05-02T06:09:00.958Z,6.73
2023-05-02T06:12:04.023Z,6.80
2023-05-02T06:15:07.711Z,6.97
2023-05-02T06:18:10.740Z,6.47
2023-05-02T06:21:13.796Z,7.27
2023-05-02T06:24:18.279Z,7.20
2023-05-02T06:27:21.238Z,7.97
2023-05-02T06:30:24.415Z,6.83
2023-05-02T06:33:27.451Z,7.17
2023-05-02T06:36:31.729Z,7.30
2023-05-02T06:39:36.740Z,7.33
2023-05-02T06:42:40.012Z,7.90
2023-05-02T06:45:43.460Z,8.53
2023-05-02T06:48:46.567Z,8.90
2023-05-02T06:51:49.840Z,9.67
2023-05-02T06:54:54.289Z,9.60
2023-05-02T06:57:57.330Z,9.70
2023-05-02T07:01:00.355Z,9.20
2023-05-02T07:04:04.488Z,8.30
2023-05-02T07:07:08.725Z,8.87
2023-05-02T07:10:13.532Z,8.20
2023-05-02T07:13:16.683Z,9.10
2023-05-02T07:16:22.392Z,8.50
2023-05-02T07:19:25.936Z,9.13
2023-05-02T07:22:28.967Z,8.80
2023-05-02T07:25:33.741Z,8.57
2023-05-02T07:28:36.845Z,7.43
2023-05-02T07:31:39.909Z,8.33
2023-05-02T07:34:43.948Z,7.87
2023-05-02T07:37:47.243Z,7.60
2023-05-02T07:40:51.793Z,7.73
2023-05-02T07:43:55.001Z,8.40
2023-05-02T07:46:58.011Z,7.47
2023-05-02T07:50:01.536Z,7.47
2023-05-02T07:53:04.974Z,8.63
2023-05-02T07:56:10.013Z,6.77
2023-05-02T07:59:13.156Z,7.00
2023-05-02T08:02:20.193Z,6.73
2023-05-02T08:05:24.031Z,6.50
2023-05-02T08:08:27.220Z,5.90
2023-05-02T08:11:31.551Z,6.57
2023-05-02T08:14:35.234Z,6.70
2023-05-02T08:17:38.289Z,6.50
2023-05-02T08:20:41.387Z,7.03
2023-05-02T08:23:45.229Z,7.30
2023-05-02T08:26:49.567Z,7.27
2023-05-02T08:29:52.512Z,6.60
2023-05-02T08:32:55.525Z,6.70
2023-05-02T08:35:58.578Z,6.17
2023-05-02T08:39:01.629Z,5.90
2023-05-02T08:42:09.157Z,6.77
2023-05-02T08:45:15.707Z,6.00
2023-05-02T08:48:20.384Z,5.60
2023-05-02T08:51:25.960Z,5.70
2023-05-02T08:54:29.347Z,4.90
2023-05-02T08:57:33.861Z,5.20
2023-05-02T09:00:40.760Z,5.20
2023-05-02T09:03:45.369Z,5.00
2023-05-02T09:06:48.668Z,5.70
2023-05-02T09:09:51.883Z,5.37
2023-05-02T09:12:56.285Z,5.53
2023-05-02T09:16:00.778Z,5.60
2023-05-02T09:19:03.756Z,5.87
2023-05-02T09:22:07.780Z,4.97
2023-05-02T09:25:11.548Z,5.37
2023-05-02T09:28:15.993Z,5.20
2023-05-02T09:31:43.591Z,5.00
2023-05-02T09:35:03.810Z,4.53
2023-05-02T09:38:21.595Z,5.87
2023-05-02T09:41:24.539Z,5.40
2023-05-02T09:44:37.851Z,5.27
2023-05-02T09:47:42.698Z,5.50
2023-05-02T09:50:45.943Z,5.57
2023-05-02T09:53:49.305Z,5.03
2023-05-02T09:56:56.603Z,5.00
2023-05-02T10:00:01.315Z,4.60
2023-05-02T10:03:07.318Z,4.40
2023-05-02T10:06:10.788Z,4.40
2023-05-02T10:09:20.567Z,4.57
2023-05-02T10:12:27.748Z,3.63
2023-05-02T10:15:33.838Z,4.40
2023-05-02T10:18:44.070Z,4.07
2023-05-02T10:21:47.476Z,4.43
2023-05-02T10:24:50.954Z,4.30
2023-05-02T10:27:54.544Z,4.50
2023-05-02T10:31:01.227Z,5.00
2023-05-02T10:34:06.217Z,5.30
2023-05-02T10:37:09.310Z,4.77
2023-05-02T10:40:13.698Z,4.33
2023-05-02T10:43:17.700Z,4.00
2023-05-02T10:46:33.124Z,4.37
2023-05-02T10:49:51.845Z,4.10
2023-05-02T10:52:54.887Z,4.13
2023-05-02T10:56:15.668Z,3.77
2023-05-02T10:59:29.431Z,4.10
2023-05-02T11:02:52.575Z,4.30
2023-05-02T11:06:06.899Z,5.20
2023-05-02T11:09:37.058Z,4.50
2023-05-02T11:12:48.498Z,5.17
2023-05-02T11:16:00.652Z,5.60
2023-05-02T11:19:05.116Z,6.50
2023-05-02T11:22:32.517Z,6.80
2023-05-02T11:25:37.549Z,7.13
2023-05-02T11:28:43.034Z,6.90
2023-05-02T11:32:04.535Z,6.27
2023-05-02T11:35:09.864Z,6.83
2023-05-02T11:38:14.524Z,6.10
2023-05-02T11:41:17.846Z,6.60
2023-05-02T11:44:20.814Z,5.90
2023-05-02T11:47:24.399Z,5.63
2023-05-02T11:50:30.327Z,5.13
2023-05-02T11:53:33.894Z,5.57
2023-05-02T11:56:36.947Z,5.03
2023-05-02T11:59:51.948Z,4.60
2023-05-02T12:02:55.056Z,4.63
2023-05-02T12:06:10.000Z,4.53
2023-05-02T12:09:16.278Z,4.40
2023-05-02T12:12:21.647Z,4.80
2023-05-02T12:15:25.784Z,4.03
2023-05-02T12:18:29.221Z,4.57
2023-05-02T12:21:33.894Z,3.73
2023-05-02T12:24:37.093Z,4.33
2023-05-02T12:27:40.069Z,4.97
2023-05-02T12:30:43.228Z,4.67
2023-05-02T12:33:50.220Z,5.17
2023-05-02T12:36:55.008Z,4.47
2023-05-02T12:39:59.713Z,4.77
2023-05-02T12:43:06.608Z,4.83
2023-05-02T12:46:13.023Z,4.30
2023-05-02T12:49:17.966Z,5.47
2023-05-02T12:52:22.993Z,5.00
2023-05-02T12:55:27.320Z,4.57
2023-05-02T12:58:30.667Z,5.03
2023-05-02T13:01:35.371Z,5.40
2023-05-02T13:04:40.714Z,5.33
2023-05-02T13:07:45.399Z,5.53
2023-05-02T13:10:48.380Z,5.13
2023-05-02T13:13:51.381Z,5.10
2023-05-02T13:16:55.413Z,5.63
2023-05-02T13:20:02.036Z,4.97
2023-05-02T13:23:06.932Z,5.00
2023-05-02T13:26:10.119Z,5.30
2023-05-02T13:29:13.131Z,5.23
2023-05-02T13:32:16.328Z,5.50
2023-05-02T13:35:19.879Z,5.17
2023-05-02T13:38:24.361Z,4.90
2023-05-02T13:41:27.894Z,4.40
2023-05-02T13:44:31.516Z,5.00
2023-05-02T13:47:34.756Z,4.97
2023-05-02T13:50:39.042Z,4.70
2023-05-02T13:53:43.422Z,4.60
2023-05-02T13:56:46.395Z,5.23
2023-05-02T13:59:49.414Z,4.97
2023-05-02T14:02:52.816Z,5.30
2023-05-02T14:05:55.961Z,4.53
2023-05-02T14:09:00.293Z,5.07
2023-05-02T14:12:03.282Z,5.17
2023-05-02T14:15:07.183Z,5.07
2023-05-02T14:18:10.529Z,5.20
2023-05-02T14:21:13.784Z,4.80
2023-05-02T14:24:19.332Z,4.63
2023-05-02T14:27:22.990Z,5.10
2023-05-02T14:30:25.932Z,5.47
2023-05-02T14:33:28.891Z,5.30
2023-05-02T14:36:32.477Z,4.90
2023-05-02T14:39:37.184Z,5.13
2023-05-02T14:42:40.158Z,4.90
2023-05-02T14:45:43.130Z,4.80
2023-05-02T14:48:46.141Z,4.57
2023-05-02T14:51:49.116Z,4.90
2023-05-02T14:54:53.498Z,5.03
2023-05-02T14:57:57.908Z,4.80
2023-05-02T15:01:01.588Z,4.87
2023-05-02T15:04:07.084Z,4.77
2023-05-02T15:07:11.670Z,4.73
2023-05-02T15:10:16.142Z,4.33
2023-05-02T15:13:19.143Z,4.63
2023-05-02T15:16:22.173Z,5.00
2023-05-02T15:19:25.288Z,4.30
2023-05-02T15:22:28.369Z,5.20
2023-05-02T15:25:32.927Z,4.90
2023-05-02T15:28:36.009Z,4.60
2023-05-02T15:31:39.325Z,4.60
2023-05-02T15:34:42.429Z,4.80
2023-05-02T15:37:46.746Z,4.83
2023-05-02T15:40:56.727Z,4.80
2023-05-02T15:44:00.439Z,5.50
2023-05-02T15:47:03.721Z,5.03
2023-05-02T15:50:07.821Z,5.07
2023-05-02T15:53:10.861Z,4.27
2023-05-02T15:56:15.771Z,4.30
2023-05-02T15:59:18.845Z,5.07
2023-05-02T16:02:21.987Z,5.10
2023-05-02T16:05:25.058Z,5.00
2023-05-02T16:08:28.895Z,4.60
2023-05-02T16:11:33.390Z,5.37
2023-05-02T16:14:37.079Z,4.20
2023-05-02T16:17:41.797Z,4.67
2023-05-02T16:20:45.204Z,4.90
2023-05-02T16:23:48.329Z,5.23
2023-05-02T16:26:53.299Z,5.43
2023-05-02T16:29:56.748Z,4.43
2023-05-02T16:32:59.958Z,4.77
2023-05-02T16:36:03.508Z,5.53
2023-05-02T16:39:06.562Z,5.07
2023-05-02T16:42:13.658Z,4.87
2023-05-02T16:45:16.744Z,4.90
2023-05-02T16:48:22.838Z,5.43
2023-05-02T16:51:25.902Z,5.07
2023-05-02T16:54:29.011Z,5.30
2023-05-02T16:57:33.617Z,5.17
2023-05-02T17:00:36.735Z,4.63
2023-05-02T17:03:41.509Z,4.73
2023-05-02T17:06:44.742Z,5.47
2023-05-02T17:09:47.861Z,4.50
2023-05-02T17:12:54.195Z,4.87
2023-05-02T17:15:57.562Z,4.63
2023-05-02T17:19:00.675Z,4.80
2023-05-02T17:22:05.094Z,4.43
2023-05-02T17:25:09.158Z,4.63
2023-05-02T17:28:13.886Z,4.70
2023-05-02T17:31:17.008Z,5.80
2023-05-02T17:34:25.578Z,4.63
2023-05-02T17:37:29.026Z,4.33
2023-05-02T17:40:32.071Z,5.10
2023-05-02T17:43:37.987Z,4.93
2023-05-02T17:46:41.738Z,5.13
2023-05-02T17:49:45.468Z,4.50
2023-05-02T17:52:48.804Z,4.87
2023-05-02T17:55:52.001Z,4.20
2023-05-02T17:58:56.420Z,4.50
2023-05-02T18:01:59.562Z,4.77
2023-05-02T18:05:03.953Z,4.60
2023-05-02T18:08:07.809Z,4.37
2023-05-02T18:11:15.429Z,4.70
2023-05-02T18:14:19.840Z,4.70
2023-05-02T18:17:23.122Z,4.70
2023-05-02T18:20:26.285Z,4.47
2023-05-02T18:23:29.432Z,4.37
2023-05-02T18:26:32.827Z,4.53
2023-05-02T18:29:37.971Z,4.17
2023-05-02T18:32:41.038Z,3.73
2023-05-02T18:35:49.873Z,3.83
2023-05-02T18:38:53.036Z,4.13
2023-05-02T18:41:56.318Z,4.53
2023-05-02T18:45:01.260Z,4.43
2023-05-02T18:48:04.836Z,4.27
2023-05-02T18:51:10.683Z,4.03
2023-05-02T18:54:13.855Z,4.07
2023-05-02T18:57:16.999Z,4.23
2023-05-02T19:00:23.424Z,4.27
2023-05-02T19:03:26.846Z,3.87
2023-05-02T19:06:29.975Z,4.10
2023-05-02T19:09:34.327Z,4.30
2023-05-02T19:12:37.311Z,4.03
2023-05-02T19:15:41.809Z,3.90
2023-05-02T19:18:45.096Z,3.63
2023-05-02T19:21:49.136Z,4.30
2023-05-02T19:24:52.210Z,3.97
2023-05-02T19:27:55.165Z,3.80
2023-05-02T19:30:59.517Z,3.57
2023-05-02T19:34:02.637Z,3.73
2023-05-02T19:37:05.585Z,3.50
2023-05-02T19:40:10.833Z,3.70
2023-05-02T19:43:13.885Z,3.50
2023-05-02T19:46:18.960Z,3.50
2023-05-02T19:49:24.558Z,3.70
2023-05-02T19:52:27.529Z,3.40
2023-05-02T19:55:30.509Z,3.80
2023-05-02T19:58:33.640Z,3.63
2023-05-02T20:01:38.025Z,3.50
2023-05-02T20:04:41.409Z,3.73
2023-05-02T20:07:46.375Z,4.17
2023-05-02T20:10:49.332Z,4.00
2023-05-02T20:13:54.254Z,4.00
2023-05-02T20:17:01.848Z,3.80
2023-05-02T20:20:08.198Z,4.07
2023-05-02T20:23:11.200Z,3.73
2023-05-02T20:26:16.325Z,3.93
2023-05-02T20:29:19.312Z,4.10
2023-05-02T20:32:23.804Z,3.83
2023-05-02T20:35:27.350Z,4.00
2023-05-02T20:38:30.436Z,3.77
2023-05-02T20:41:34.882Z,4.40
2023-05-02T20:44:37.898Z,3.73
2023-05-02T20:47:42.301Z,3.90
2023-05-02T20:50:53.315Z,3.83
2023-05-02T20:53:56.589Z,4.80
2023-05-02T20:57:00.595Z,4.10
2023-05-02T21:00:04.697Z,3.67
2023-05-02T21:03:09.617Z,4.73
2023-05-02T21:06:12.716Z,4.10
2023-05-02T21:09:17.924Z,4.37
2023-05-02T21:12:20.947Z,4.27
2023-05-02T21:15:24.175Z,4.63
2023-05-02T21:18:28.455Z,3.73
2023-05-02T21:21:32.269Z,4.40
2023-05-02T21:24:35.240Z,4.30
2023-05-02T21:27:39.745Z,4.70
2023-05-02T21:30:43.390Z,4.30
2023-05-02T21:33:47.786Z,4.13
2023-05-02T21:36:50.799Z,4.30
2023-05-02T21:39:53.752Z,4.27
2023-05-02T21:42:56.857Z,4.20
2023-05-02T21:45:59.827Z,4.13
2023-05-02T21:49:04.249Z,4.30
2023-05-02T21:52:07.265Z,4.20
2023-05-02T21:55:11.140Z,4.50
2023-05-02T21:58:14.289Z,4.10
2023-05-02T22:01:17.442Z,4.20
2023-05-02T22:04:22.071Z,4.10
2023-05-02T22:07:25.074Z,4.10
2023-05-02T22:10:29.264Z,4.33
2023-05-02T22:13:32.309Z,4.30
2023-05-02T22:16:35.433Z,3.67
2023-05-02T22:19:40.578Z,4.07
2023-05-02T22:22:43.645Z,4.13
2023-05-02T22:25:46.632Z,4.40
2023-05-02T22:28:49.763Z,4.30
2023-05-02T22:31:53.042Z,4.70
2023-05-02T22:34:57.393Z,4.30
2023-05-02T22:38:01.601Z,3.93
2023-05-02T22:41:06.594Z,4.07
2023-05-02T22:44:09.812Z,4.07
2023-05-02T22:47:13.349Z,4.33
2023-05-02T22:50:17.709Z,4.67
2023-05-02T22:53:21.584Z,4.10
2023-05-02T22:56:24.581Z,4.20
2023-05-02T22:59:29.609Z,4.50
2023-05-02T23:02:32.787Z,4.00
2023-05-02T23:05:37.234Z,4.50
2023-05-02T23:08:40.193Z,4.00
2023-05-02T23:11:43.163Z,4.53
2023-05-02T23:14:46.378Z,3.87
2023-05-02T23:17:49.441Z,4.47
2023-05-02T23:20:53.829Z,4.33
2023-05-02T23:23:56.829Z,4.37
2023-05-02T23:26:59.850Z,4.23
2023-05-02T23:30:03.152Z,4.70
2023-05-02T23:33:06.424Z,4.90
2023-05-02T23:36:11.396Z,4.63
2023-05-02T23:39:14.564Z,4.37
2023-05-02T23:42:17.817Z,4.53
2023-05-02T23:45:21.118Z,4.10
2023-05-02T23:48:24.130Z,4.10
2023-05-02T23:51:28.912Z,4.40
2023-05-02T23:54:32.668Z,4.20
2023-05-02T23:57:36.724Z,4.53
